sensor_id;sensor_type;location;lat;lon;timestamp;P1;durP1;ratioP1;P2;durP2;ratioP2
6999;SDS011;3540;53.242;10.408;2022-09-02T00:00:42;3.03;;;1.70;;
6999;SDS011;3540;53.242;10.408;2022-09-02T00:03:09;4.47;;;2.10;;
6999;SDS011;3540;53.242;10.408;2022-09-02T00:05:36;2.87;;;2.50;;
6999;SDS011;3540;53.242;10.408;2022-09-02T00:08:02;3.80;;;2.50;;
6999;SDS011;3540;53.242;10.408;2022-09-02T00:10:30;2.63;;;1.70;;
6999;SDS011;3540;53.242;10.408;2022-09-02T00:12:56;3.40;;;1.67;;
6999;SDS011;3540;53.242;10.408;2022-09-02T00:15:22;1.90;;;1.80;;
6999;SDS011;3540;53.242;10.408;2022-09-02T00:17:48;2.03;;;1.60;;
6999;SDS011;3540;53.242;10.408;2022-09-02T00:20:13;2.40;;;1.83;;
6999;SDS011;3540;53.242;10.408;2022-09-02T00:22:39;1.80;;;1.70;;
6999;SDS011;3540;53.242;10.408;2022-09-02T00:25:05;2.17;;;1.80;;
6999;SDS011;3540;53.242;10.408;2022-09-02T00:27:32;1.50;;;1.40;;
6999;SDS011;3540;53.242;10.408;2022-09-02T00:30:02;9.90;;;6.07;;
6999;SDS011;3540;53.242;10.408;2022-09-02T00:32:29;7.37;;;2.93;;
6999;SDS011;3540;53.242;10.408;2022-09-02T00:34:54;2.43;;;1.60;;
6999;SDS011;3540;53.242;10.408;2022-09-02T00:37:22;1.97;;;1.77;;
6999;SDS011;3540;53.242;10.408;2022-09-02T00:39:50;2.70;;;1.63;;
6999;SDS011;3540;53.242;10.408;2022-09-02T00:42:21;1.57;;;1.47;;
6999;SDS011;3540;53.242;10.408;2022-09-02T00:44:48;3.73;;;1.60;;
6999;SDS011;3540;53.242;10.408;2022-09-02T00:47:15;1.87;;;1.60;;
6999;SDS011;3540;53.242;10.408;2022-09-02T00:49:42;1.90;;;1.40;;
6999;SDS011;3540;53.242;10.408;2022-09-02T00:52:23;1.73;;;1.60;;
6999;SDS011;3540;53.242;10.408;2022-09-02T00:55:04;2.27;;;1.60;;
6999;SDS011;3540;53.242;10.408;2022-09-02T00:57:36;1.50;;;1.40;;
6999;SDS011;3540;53.242;10.408;2022-09-02T01:00:11;1.90;;;1.73;;
6999;SDS011;3540;53.242;10.408;2022-09-02T01:02:41;1.60;;;1.40;;
6999;SDS011;3540;53.242;10.408;2022-09-02T01:05:11;1.60;;;1.50;;
6999;SDS011;3540;53.242;10.408;2022-09-02T01:07:39;1.80;;;1.70;;
6999;SDS011;3540;53.242;10.408;2022-09-02T01:10:08;1.80;;;1.50;;
6999;SDS011;3540;53.242;10.408;2022-09-02T01:12:37;3.90;;;1.60;;
6999;SDS011;3540;53.242;10.408;2022-09-02T01:15:05;3.43;;;1.60;;
6999;SDS011;3540;53.242;10.408;2022-09-02T01:17:33;2.13;;;1.50;;
6999;SDS011;3540;53.242;10.408;2022-09-02T01:20:07;1.50;;;1.40;;
6999;SDS011;3540;53.242;10.408;2022-09-02T01:22:36;1.30;;;1.20;;
6999;SDS011;3540;53.242;10.408;2022-09-02T01:25:04;2.77;;;1.30;;
6999;SDS011;3540;53.242;10.408;2022-09-02T01:27:36;2.07;;;1.40;;
6999;SDS011;3540;53.242;10.408;2022-09-02T01:30:03;2.80;;;1.87;;
6999;SDS011;3540;53.242;10.408;2022-09-02T01:32:30;3.30;;;2.50;;
6999;SDS011;3540;53.242;10.408;2022-09-02T01:34:56;4.20;;;1.57;;
6999;SDS011;3540;53.242;10.408;2022-09-02T01:37:23;2.53;;;1.70;;
6999;SDS011;3540;53.242;10.408;2022-09-02T01:39:49;4.43;;;1.53;;
6999;SDS011;3540;53.242;10.408;2022-09-02T01:42:16;1.57;;;1.47;;
6999;SDS011;3540;53.242;10.408;2022-09-02T01:44:42;2.07;;;1.50;;
6999;SDS011;3540;53.242;10.408;2022-09-02T01:47:09;3.53;;;1.60;;
6999;SDS011;3540;53.242;10.408;2022-09-02T01:49:36;2.20;;;1.50;;
6999;SDS011;3540;53.242;10.408;2022-09-02T01:52:02;2.60;;;1.43;;
6999;SDS011;3540;53.242;10.408;2022-09-02T01:54:28;1.87;;;1.50;;
6999;SDS011;3540;53.242;10.408;2022-09-02T01:56:54;2.73;;;1.40;;
6999;SDS011;3540;53.242;10.408;2022-09-02T01:59:19;1.60;;;1.50;;
6999;SDS011;3540;53.242;10.408;2022-09-02T02:01:45;2.00;;;1.40;;
6999;SDS011;3540;53.242;10.408;2022-09-02T02:04:11;2.07;;;1.50;;
6999;SDS011;3540;53.242;10.408;2022-09-02T02:06:46;1.77;;;1.53;;
6999;SDS011;3540;53.242;10.408;2022-09-02T02:09:12;2.57;;;1.40;;
6999;SDS011;3540;53.242;10.408;2022-09-02T02:11:40;1.70;;;1.60;;
6999;SDS011;3540;53.242;10.408;2022-09-02T02:14:06;2.90;;;1.40;;
6999;SDS011;3540;53.242;10.408;2022-09-02T02:16:32;1.80;;;1.50;;
6999;SDS011;3540;53.242;10.408;2022-09-02T02:18:57;1.60;;;1.50;;
6999;SDS011;3540;53.242;10.408;2022-09-02T02:21:23;4.47;;;1.60;;
6999;SDS011;3540;53.242;10.408;2022-09-02T02:23:50;2.07;;;1.57;;
6999;SDS011;3540;53.242;10.408;2022-09-02T02:26:15;3.27;;;1.60;;
6999;SDS011;3540;53.242;10.408;2022-09-02T02:28:41;2.90;;;1.90;;
6999;SDS011;3540;53.242;10.408;2022-09-02T02:31:07;3.63;;;1.60;;
6999;SDS011;3540;53.242;10.408;2022-09-02T02:33:33;2.03;;;1.70;;
6999;SDS011;3540;53.242;10.408;2022-09-02T02:36:00;2.20;;;1.73;;
6999;SDS011;3540;53.242;10.408;2022-09-02T02:38:28;3.30;;;1.70;;
6999;SDS011;3540;53.242;10.408;2022-09-02T02:40:55;1.70;;;1.60;;
6999;SDS011;3540;53.242;10.408;2022-09-02T02:43:22;4.33;;;1.67;;
6999;SDS011;3540;53.242;10.408;2022-09-02T02:45:48;2.23;;;1.90;;
6999;SDS011;3540;53.242;10.408;2022-09-02T02:48:14;2.13;;;1.67;;
6999;SDS011;3540;53.242;10.408;2022-09-02T02:50:40;1.97;;;1.60;;
6999;SDS011;3540;53.242;10.408;2022-09-02T02:53:06;4.47;;;1.60;;
6999;SDS011;3540;53.242;10.408;2022-09-02T02:55:32;2.17;;;1.70;;
6999;SDS011;3540;53.242;10.408;2022-09-02T02:57:58;2.43;;;1.80;;
6999;SDS011;3540;53.242;10.408;2022-09-02T03:00:26;3.50;;;1.97;;
6999;SDS011;3540;53.242;10.408;2022-09-02T03:02:56;1.87;;;1.73;;
6999;SDS011;3540;53.242;10.408;2022-09-02T03:05:23;2.07;;;1.70;;
6999;SDS011;3540;53.242;10.408;2022-09-02T03:07:49;2.47;;;1.80;;
6999;SDS011;3540;53.242;10.408;2022-09-02T03:10:16;1.60;;;1.50;;
6999;SDS011;3540;53.242;10.408;2022-09-02T03:12:45;2.47;;;1.70;;
6999;SDS011;3540;53.242;10.408;2022-09-02T03:15:12;2.00;;;1.73;;
6999;SDS011;3540;53.242;10.408;2022-09-02T03:17:41;2.10;;;1.73;;
6999;SDS011;3540;53.242;10.408;2022-09-02T03:20:10;3.90;;;1.87;;
6999;SDS011;3540;53.242;10.408;2022-09-02T03:22:36;1.90;;;1.70;;
6999;SDS011;3540;53.242;10.408;2022-09-02T03:25:06;4.33;;;1.70;;
6999;SDS011;3540;53.242;10.408;2022-09-02T03:27:33;3.73;;;1.50;;
6999;SDS011;3540;53.242;10.408;2022-09-02T03:29:59;2.67;;;1.60;;
6999;SDS011;3540;53.242;10.408;2022-09-02T03:32:25;2.40;;;1.77;;
6999;SDS011;3540;53.242;10.408;2022-09-02T03:34:51;2.47;;;1.87;;
6999;SDS011;3540;53.242;10.408;2022-09-02T03:37:19;2.73;;;1.90;;
6999;SDS011;3540;53.242;10.408;2022-09-02T03:39:44;3.00;;;1.90;;
6999;SDS011;3540;53.242;10.408;2022-09-02T03:42:10;3.87;;;2.27;;
6999;SDS011;3540;53.242;10.408;2022-09-02T03:44:36;4.23;;;1.90;;
6999;SDS011;3540;53.242;10.408;2022-09-02T03:47:04;1.97;;;1.87;;
6999;SDS011;3540;53.242;10.408;2022-09-02T03:49:30;1.97;;;1.73;;
6999;SDS011;3540;53.242;10.408;2022-09-02T03:51:56;4.83;;;2.30;;
6999;SDS011;3540;53.242;10.408;2022-09-02T03:54:22;2.63;;;2.20;;
6999;SDS011;3540;53.242;10.408;2022-09-02T03:56:48;3.03;;;2.37;;
6999;SDS011;3540;53.242;10.408;2022-09-02T03:59:14;5.47;;;2.10;;
6999;SDS011;3540;53.242;10.408;2022-09-02T04:01:41;4.33;;;2.67;;
6999;SDS011;3540;53.242;10.408;2022-09-02T04:04:07;3.93;;;2.50;;
6999;SDS011;3540;53.242;10.408;2022-09-02T04:06:33;4.30;;;2.30;;
6999;SDS011;3540;53.242;10.408;2022-09-02T04:08:59;5.10;;;2.10;;
6999;SDS011;3540;53.242;10.408;2022-09-02T04:11:25;3.23;;;2.40;;
6999;SDS011;3540;53.242;10.408;2022-09-02T04:13:51;4.43;;;2.20;;
6999;SDS011;3540;53.242;10.408;2022-09-02T04:16:19;4.03;;;2.13;;
6999;SDS011;3540;53.242;10.408;2022-09-02T04:18:51;2.40;;;2.20;;
6999;SDS011;3540;53.242;10.408;2022-09-02T04:21:17;2.97;;;2.10;;
6999;SDS011;3540;53.242;10.408;2022-09-02T04:23:43;3.65;;;2.00;;
6999;SDS011;3540;53.242;10.408;2022-09-02T04:26:11;2.33;;;2.07;;
6999;SDS011;3540;53.242;10.408;2022-09-02T04:28:38;3.70;;;2.30;;
6999;SDS011;3540;53.242;10.408;2022-09-02T04:31:05;3.30;;;2.17;;
6999;SDS011;3540;53.242;10.408;2022-09-02T04:33:32;4.63;;;2.30;;
6999;SDS011;3540;53.242;10.408;2022-09-02T04:35:59;2.30;;;2.10;;
6999;SDS011;3540;53.242;10.408;2022-09-02T04:38:27;4.77;;;2.30;;
6999;SDS011;3540;53.242;10.408;2022-09-02T04:40:53;3.80;;;2.20;;
6999;SDS011;3540;53.242;10.408;2022-09-02T04:43:18;2.93;;;2.07;;
6999;SDS011;3540;53.242;10.408;2022-09-02T04:45:44;3.70;;;2.00;;
6999;SDS011;3540;53.242;10.408;2022-09-02T04:48:10;5.43;;;2.30;;
6999;SDS011;3540;53.242;10.408;2022-09-02T04:50:38;5.67;;;2.10;;
6999;SDS011;3540;53.242;10.408;2022-09-02T04:53:05;4.47;;;2.40;;
6999;SDS011;3540;53.242;10.408;2022-09-02T04:55:31;5.23;;;2.30;;
6999;SDS011;3540;53.242;10.408;2022-09-02T04:57:58;5.07;;;2.30;;
6999;SDS011;3540;53.242;10.408;2022-09-02T05:00:23;4.77;;;2.20;;
6999;SDS011;3540;53.242;10.408;2022-09-02T05:02:50;4.47;;;2.30;;
6999;SDS011;3540;53.242;10.408;2022-09-02T05:05:17;5.10;;;2.20;;
6999;SDS011;3540;53.242;10.408;2022-09-02T05:07:43;5.13;;;2.70;;
6999;SDS011;3540;53.242;10.408;2022-09-02T05:10:09;8.57;;;2.47;;
6999;SDS011;3540;53.242;10.408;2022-09-02T05:12:37;4.93;;;2.40;;
6999;SDS011;3540;53.242;10.408;2022-09-02T05:15:04;3.53;;;2.47;;
6999;SDS011;3540;53.242;10.408;2022-09-02T05:17:31;5.00;;;2.50;;
6999;SDS011;3540;53.242;10.408;2022-09-02T05:19:57;4.00;;;2.07;;
6999;SDS011;3540;53.242;10.408;2022-09-02T05:22:23;4.00;;;2.10;;
6999;SDS011;3540;53.242;10.408;2022-09-02T05:24:50;3.87;;;2.60;;
6999;SDS011;3540;53.242;10.408;2022-09-02T05:27:16;3.23;;;2.17;;
6999;SDS011;3540;53.242;10.408;2022-09-02T05:29:41;3.33;;;2.20;;
6999;SDS011;3540;53.242;10.408;2022-09-02T05:32:07;5.57;;;2.33;;
6999;SDS011;3540;53.242;10.408;2022-09-02T05:34:34;3.30;;;2.47;;
6999;SDS011;3540;53.242;10.408;2022-09-02T05:37:01;4.07;;;2.50;;
6999;SDS011;3540;53.242;10.408;2022-09-02T05:39:28;4.07;;;2.77;;
6999;SDS011;3540;53.242;10.408;2022-09-02T05:41:55;9.97;;;3.23;;
6999;SDS011;3540;53.242;10.408;2022-09-02T05:44:20;5.27;;;3.60;;
6999;SDS011;3540;53.242;10.408;2022-09-02T05:46:46;9.27;;;5.23;;
6999;SDS011;3540;53.242;10.408;2022-09-02T05:49:12;8.87;;;5.73;;
6999;SDS011;3540;53.242;10.408;2022-09-02T05:51:49;10.10;;;5.70;;
6999;SDS011;3540;53.242;10.408;2022-09-02T05:54:27;7.33;;;5.43;;
6999;SDS011;3540;53.242;10.408;2022-09-02T05:56:55;8.33;;;5.67;;
6999;SDS011;3540;53.242;10.408;2022-09-02T05:59:23;10.70;;;4.70;;
6999;SDS011;3540;53.242;10.408;2022-09-02T06:01:50;6.70;;;4.30;;
6999;SDS011;3540;53.242;10.408;2022-09-02T06:04:17;8.13;;;3.57;;
6999;SDS011;3540;53.242;10.408;2022-09-02T06:06:44;4.57;;;2.70;;
6999;SDS011;3540;53.242;10.408;2022-09-02T06:09:12;6.60;;;2.77;;
6999;SDS011;3540;53.242;10.408;2022-09-02T06:11:40;5.83;;;2.27;;
6999;SDS011;3540;53.242;10.408;2022-09-02T06:14:13;2.30;;;1.77;;
6999;SDS011;3540;53.242;10.408;2022-09-02T06:16:41;3.73;;;2.13;;
6999;SDS011;3540;53.242;10.408;2022-09-02T06:19:07;6.90;;;2.23;;
6999;SDS011;3540;53.242;10.408;2022-09-02T06:21:34;3.83;;;1.67;;
6999;SDS011;3540;53.242;10.408;2022-09-02T06:24:03;5.57;;;1.50;;
6999;SDS011;3540;53.242;10.408;2022-09-02T06:26:30;1.87;;;1.50;;
6999;SDS011;3540;53.242;10.408;2022-09-02T06:28:56;3.20;;;1.67;;
6999;SDS011;3540;53.242;10.408;2022-09-02T06:31:22;1.60;;;1.40;;
6999;SDS011;3540;53.242;10.408;2022-09-02T06:33:50;4.60;;;1.60;;
6999;SDS011;3540;53.242;10.408;2022-09-02T06:36:18;3.00;;;1.60;;
6999;SDS011;3540;53.242;10.408;2022-09-02T06:38:46;3.43;;;1.60;;
6999;SDS011;3540;53.242;10.408;2022-09-02T06:41:15;2.63;;;1.50;;
6999;SDS011;3540;53.242;10.408;2022-09-02T06:43:47;1.67;;;1.50;;
6999;SDS011;3540;53.242;10.408;2022-09-02T06:46:17;4.37;;;2.50;;
6999;SDS011;3540;53.242;10.408;2022-09-02T06:48:45;2.93;;;1.40;;
6999;SDS011;3540;53.242;10.408;2022-09-02T06:51:17;1.97;;;1.50;;
6999;SDS011;3540;53.242;10.408;2022-09-02T06:53:54;2.20;;;1.40;;
6999;SDS011;3540;53.242;10.408;2022-09-02T06:56:20;2.37;;;1.60;;
6999;SDS011;3540;53.242;10.408;2022-09-02T06:58:46;5.97;;;1.60;;
6999;SDS011;3540;53.242;10.408;2022-09-02T07:01:19;1.80;;;1.70;;
6999;SDS011;3540;53.242;10.408;2022-09-02T07:03:47;1.83;;;1.50;;
6999;SDS011;3540;53.242;10.408;2022-09-02T07:06:36;3.03;;;1.50;;
6999;SDS011;3540;53.242;10.408;2022-09-02T07:09:07;1.70;;;1.50;;
6999;SDS011;3540;53.242;10.408;2022-09-02T07:11:34;1.43;;;1.33;;
6999;SDS011;3540;53.242;10.408;2022-09-02T07:13:59;2.20;;;1.53;;
6999;SDS011;3540;53.242;10.408;2022-09-02T07:16:30;3.23;;;1.30;;
6999;SDS011;3540;53.242;10.408;2022-09-02T07:18:58;2.93;;;1.37;;
6999;SDS011;3540;53.242;10.408;2022-09-02T07:21:25;6.50;;;1.90;;
6999;SDS011;3540;53.242;10.408;2022-09-02T07:23:53;4.27;;;1.50;;
6999;SDS011;3540;53.242;10.408;2022-09-02T07:26:20;3.90;;;1.47;;
6999;SDS011;3540;53.242;10.408;2022-09-02T07:28:46;2.87;;;1.50;;
6999;SDS011;3540;53.242;10.408;2022-09-02T07:31:13;2.10;;;1.30;;
6999;SDS011;3540;53.242;10.408;2022-09-02T07:33:40;3.13;;;1.50;;
6999;SDS011;3540;53.242;10.408;2022-09-02T07:36:06;1.43;;;1.30;;
6999;SDS011;3540;53.242;10.408;2022-09-02T07:38:34;2.00;;;1.33;;
6999;SDS011;3540;53.242;10.408;2022-09-02T07:41:00;6.10;;;1.50;;
6999;SDS011;3540;53.242;10.408;2022-09-02T07:43:27;2.07;;;1.37;;
6999;SDS011;3540;53.242;10.408;2022-09-02T07:45:54;3.40;;;1.50;;
6999;SDS011;3540;53.242;10.408;2022-09-02T07:48:21;2.97;;;1.30;;
6999;SDS011;3540;53.242;10.408;2022-09-02T07:50:48;4.43;;;2.70;;
6999;SDS011;3540;53.242;10.408;2022-09-02T07:53:14;3.37;;;1.30;;
6999;SDS011;3540;53.242;10.408;2022-09-02T07:55:40;2.43;;;1.40;;
6999;SDS011;3540;53.242;10.408;2022-09-02T07:58:06;1.27;;;1.17;;
6999;SDS011;3540;53.242;10.408;2022-09-02T08:00:33;2.80;;;1.40;;
6999;SDS011;3540;53.242;10.408;2022-09-02T08:02:59;3.50;;;1.53;;
6999;SDS011;3540;53.242;10.408;2022-09-02T08:05:26;2.10;;;1.43;;
6999;SDS011;3540;53.242;10.408;2022-09-02T08:07:52;3.23;;;1.30;;
6999;SDS011;3540;53.242;10.408;2022-09-02T08:10:17;1.40;;;1.30;;
6999;SDS011;3540;53.242;10.408;2022-09-02T08:12:44;1.67;;;1.47;;
6999;SDS011;3540;53.242;10.408;2022-09-02T08:15:11;4.40;;;1.60;;
6999;SDS011;3540;53.242;10.408;2022-09-02T08:17:37;1.43;;;1.20;;
6999;SDS011;3540;53.242;10.408;2022-09-02T08:20:05;1.67;;;1.40;;
6999;SDS011;3540;53.242;10.408;2022-09-02T08:22:36;5.07;;;1.30;;
6999;SDS011;3540;53.242;10.408;2022-09-02T08:25:02;1.73;;;1.40;;
6999;SDS011;3540;53.242;10.408;2022-09-02T08:27:29;2.53;;;1.00;;
6999;SDS011;3540;53.242;10.408;2022-09-02T08:29:56;1.93;;;1.30;;
6999;SDS011;3540;53.242;10.408;2022-09-02T08:32:22;1.40;;;1.23;;
6999;SDS011;3540;53.242;10.408;2022-09-02T08:34:48;1.30;;;1.10;;
6999;SDS011;3540;53.242;10.408;2022-09-02T08:37:14;2.17;;;1.20;;
6999;SDS011;3540;53.242;10.408;2022-09-02T08:39:42;2.27;;;1.37;;
6999;SDS011;3540;53.242;10.408;2022-09-02T08:42:12;2.73;;;1.53;;
6999;SDS011;3540;53.242;10.408;2022-09-02T08:44:42;1.50;;;1.40;;
6999;SDS011;3540;53.242;10.408;2022-09-02T08:47:10;1.30;;;1.10;;
6999;SDS011;3540;53.242;10.408;2022-09-02T08:49:43;1.33;;;1.10;;
6999;SDS011;3540;53.242;10.408;2022-09-02T08:52:16;3.40;;;1.40;;
6999;SDS011;3540;53.242;10.408;2022-09-02T08:54:58;4.80;;;1.30;;
6999;SDS011;3540;53.242;10.408;2022-09-02T08:57:26;5.63;;;1.60;;
6999;SDS011;3540;53.242;10.408;2022-09-02T08:59:53;2.30;;;1.40;;
6999;SDS011;3540;53.242;10.408;2022-09-02T09:08:03;2.53;;;1.30;;
6999;SDS011;3540;53.242;10.408;2022-09-02T09:10:37;3.03;;;1.83;;
6999;SDS011;3540;53.242;10.408;2022-09-02T09:13:36;2.93;;;1.27;;
6999;SDS011;3540;53.242;10.408;2022-09-02T09:19:11;1.90;;;1.53;;
6999;SDS011;3540;53.242;10.408;2022-09-02T09:21:39;1.30;;;1.20;;
6999;SDS011;3540;53.242;10.408;2022-09-02T09:26:54;1.63;;;1.20;;
6999;SDS011;3540;53.242;10.408;2022-09-02T09:29:20;2.13;;;1.33;;
6999;SDS011;3540;53.242;10.408;2022-09-02T09:31:49;2.97;;;1.57;;
6999;SDS011;3540;53.242;10.408;2022-09-02T09:34:22;4.13;;;1.40;;
6999;SDS011;3540;53.242;10.408;2022-09-02T09:39:28;1.93;;;1.40;;
6999;SDS011;3540;53.242;10.408;2022-09-02T09:41:56;2.13;;;1.30;;
6999;SDS011;3540;53.242;10.408;2022-09-02T09:47:30;4.20;;;1.53;;
6999;SDS011;3540;53.242;10.408;2022-09-02T09:50:12;1.97;;;1.40;;
6999;SDS011;3540;53.242;10.408;2022-09-02T09:52:42;1.93;;;1.20;;
6999;SDS011;3540;53.242;10.408;2022-09-02T09:55:15;2.10;;;1.40;;
6999;SDS011;3540;53.242;10.408;2022-09-02T09:57:44;2.97;;;1.63;;
6999;SDS011;3540;53.242;10.408;2022-09-02T10:00:19;1.43;;;1.30;;
6999;SDS011;3540;53.242;10.408;2022-09-02T10:02:57;3.40;;;1.43;;
6999;SDS011;3540;53.242;10.408;2022-09-02T10:07:54;3.80;;;1.80;;
6999;SDS011;3540;53.242;10.408;2022-09-02T10:10:23;1.90;;;1.50;;
6999;SDS011;3540;53.242;10.408;2022-09-02T10:12:51;3.20;;;1.70;;
6999;SDS011;3540;53.242;10.408;2022-09-02T10:15:40;5.47;;;1.50;;
6999;SDS011;3540;53.242;10.408;2022-09-02T10:18:27;3.97;;;1.53;;
6999;SDS011;3540;53.242;10.408;2022-09-02T10:21:06;3.10;;;1.40;;
6999;SDS011;3540;53.242;10.408;2022-09-02T10:23:54;2.23;;;1.40;;
6999;SDS011;3540;53.242;10.408;2022-09-02T10:55:52;2.53;;;1.30;;
6999;SDS011;3540;53.242;10.408;2022-09-02T11:00:51;1.87;;;1.37;;
6999;SDS011;3540;53.242;10.408;2022-09-02T11:03:24;2.20;;;1.63;;
6999;SDS011;3540;53.242;10.408;2022-09-02T11:08:39;3.30;;;1.40;;
6999;SDS011;3540;53.242;10.408;2022-09-02T11:16:15;2.10;;;1.33;;
6999;SDS011;3540;53.242;10.408;2022-09-02T11:18:51;2.63;;;1.33;;
6999;SDS011;3540;53.242;10.408;2022-09-02T11:24:43;1.98;;;1.40;;
6999;SDS011;3540;53.242;10.408;2022-09-02T11:32:36;4.80;;;1.60;;
6999;SDS011;3540;53.242;10.408;2022-09-02T11:35:11;4.37;;;1.40;;
6999;SDS011;3540;53.242;10.408;2022-09-02T11:37:44;1.70;;;1.30;;
6999;SDS011;3540;53.242;10.408;2022-09-02T11:53:23;3.95;;;1.60;;
6999;SDS011;3540;53.242;10.408;2022-09-02T11:55:58;1.52;;;1.25;;
6999;SDS011;3540;53.242;10.408;2022-09-02T11:58:29;3.53;;;1.40;;
6999;SDS011;3540;53.242;10.408;2022-09-02T12:04:03;4.60;;;1.10;;
6999;SDS011;3540;53.242;10.408;2022-09-02T12:13:00;3.40;;;1.30;;
6999;SDS011;3540;53.242;10.408;2022-09-02T12:18:11;1.90;;;1.20;;
6999;SDS011;3540;53.242;10.408;2022-09-02T12:26:21;1.30;;;1.20;;
6999;SDS011;3540;53.242;10.408;2022-09-02T12:28:49;2.65;;;1.40;;
6999;SDS011;3540;53.242;10.408;2022-09-02T12:52:50;2.45;;;1.38;;
6999;SDS011;3540;53.242;10.408;2022-09-02T12:55:31;2.55;;;1.63;;
6999;SDS011;3540;53.242;10.408;2022-09-02T12:58:06;2.75;;;1.40;;
6999;SDS011;3540;53.242;10.408;2022-09-02T13:25:59;4.93;;;1.60;;
6999;SDS011;3540;53.242;10.408;2022-09-02T13:31:23;1.88;;;1.58;;
6999;SDS011;3540;53.242;10.408;2022-09-02T13:33:57;5.75;;;1.40;;
6999;SDS011;3540;53.242;10.408;2022-09-02T13:36:28;4.00;;;1.83;;
6999;SDS011;3540;53.242;10.408;2022-09-02T13:41:49;2.80;;;1.50;;
6999;SDS011;3540;53.242;10.408;2022-09-02T13:46:53;6.18;;;1.90;;
6999;SDS011;3540;53.242;10.408;2022-09-02T13:49:35;3.10;;;1.27;;
6999;SDS011;3540;53.242;10.408;2022-09-02T13:52:02;1.73;;;1.50;;
6999;SDS011;3540;53.242;10.408;2022-09-02T13:54:32;1.63;;;1.40;;
6999;SDS011;3540;53.242;10.408;2022-09-02T13:57:05;2.60;;;1.38;;
6999;SDS011;3540;53.242;10.408;2022-09-02T13:59:37;2.28;;;1.20;;
6999;SDS011;3540;53.242;10.408;2022-09-02T14:04:48;2.40;;;1.33;;
6999;SDS011;3540;53.242;10.408;2022-09-02T14:07:18;1.40;;;1.30;;
6999;SDS011;3540;53.242;10.408;2022-09-02T14:10:04;3.83;;;1.45;;
6999;SDS011;3540;53.242;10.408;2022-09-02T14:12:32;3.35;;;1.55;;
6999;SDS011;3540;53.242;10.408;2022-09-02T14:15:00;2.72;;;1.50;;
6999;SDS011;3540;53.242;10.408;2022-09-02T14:17:26;1.40;;;1.30;;
6999;SDS011;3540;53.242;10.408;2022-09-02T14:22:39;3.63;;;1.40;;
6999;SDS011;3540;53.242;10.408;2022-09-02T14:25:23;1.80;;;1.40;;
6999;SDS011;3540;53.242;10.408;2022-09-02T14:27:55;2.67;;;1.33;;
6999;SDS011;3540;53.242;10.408;2022-09-02T14:30:27;1.80;;;1.40;;
6999;SDS011;3540;53.242;10.408;2022-09-02T14:35:40;3.90;;;1.35;;
6999;SDS011;3540;53.242;10.408;2022-09-02T14:38:05;4.00;;;1.30;;
6999;SDS011;3540;53.242;10.408;2022-09-02T14:40:32;2.53;;;1.40;;
6999;SDS011;3540;53.242;10.408;2022-09-02T14:43:00;4.10;;;1.30;;
6999;SDS011;3540;53.242;10.408;2022-09-02T14:45:28;2.45;;;1.27;;
6999;SDS011;3540;53.242;10.408;2022-09-02T14:47:54;2.78;;;1.80;;
6999;SDS011;3540;53.242;10.408;2022-09-02T14:50:24;3.58;;;1.50;;
6999;SDS011;3540;53.242;10.408;2022-09-02T14:52:54;1.70;;;1.48;;
6999;SDS011;3540;53.242;10.408;2022-09-02T14:55:39;1.38;;;1.27;;
6999;SDS011;3540;53.242;10.408;2022-09-02T14:58:06;3.15;;;1.60;;
6999;SDS011;3540;53.242;10.408;2022-09-02T15:00:31;1.83;;;1.30;;
6999;SDS011;3540;53.242;10.408;2022-09-02T15:02:57;1.88;;;1.42;;
6999;SDS011;3540;53.242;10.408;2022-09-02T15:05:25;3.80;;;1.40;;
6999;SDS011;3540;53.242;10.408;2022-09-02T15:07:51;2.50;;;1.30;;
6999;SDS011;3540;53.242;10.408;2022-09-02T15:10:16;1.83;;;1.50;;
6999;SDS011;3540;53.242;10.408;2022-09-02T15:12:45;1.30;;;1.20;;
6999;SDS011;3540;53.242;10.408;2022-09-02T15:15:17;3.28;;;1.50;;
6999;SDS011;3540;53.242;10.408;2022-09-02T15:17:42;2.92;;;1.50;;
6999;SDS011;3540;53.242;10.408;2022-09-02T15:20:08;5.80;;;1.90;;
6999;SDS011;3540;53.242;10.408;2022-09-02T15:22:34;3.33;;;1.40;;
6999;SDS011;3540;53.242;10.408;2022-09-02T15:25:00;3.10;;;1.70;;
6999;SDS011;3540;53.242;10.408;2022-09-02T15:27:28;4.60;;;1.40;;
6999;SDS011;3540;53.242;10.408;2022-09-02T15:29:54;3.55;;;1.63;;
6999;SDS011;3540;53.242;10.408;2022-09-02T15:32:19;4.15;;;1.40;;
6999;SDS011;3540;53.242;10.408;2022-09-02T15:34:45;1.45;;;1.30;;
6999;SDS011;3540;53.242;10.408;2022-09-02T15:37:11;1.45;;;1.35;;
6999;SDS011;3540;53.242;10.408;2022-09-02T15:39:37;2.20;;;1.20;;
6999;SDS011;3540;53.242;10.408;2022-09-02T15:42:03;3.80;;;1.40;;
6999;SDS011;3540;53.242;10.408;2022-09-02T15:44:29;1.85;;;1.40;;
6999;SDS011;3540;53.242;10.408;2022-09-02T15:46:55;5.45;;;1.35;;
6999;SDS011;3540;53.242;10.408;2022-09-02T15:49:21;3.92;;;1.73;;
6999;SDS011;3540;53.242;10.408;2022-09-02T15:51:48;3.25;;;1.98;;
6999;SDS011;3540;53.242;10.408;2022-09-02T15:54:16;1.55;;;1.38;;
6999;SDS011;3540;53.242;10.408;2022-09-02T15:56:44;1.80;;;1.33;;
6999;SDS011;3540;53.242;10.408;2022-09-02T15:59:12;1.70;;;1.60;;
6999;SDS011;3540;53.242;10.408;2022-09-02T16:01:42;2.95;;;1.40;;
6999;SDS011;3540;53.242;10.408;2022-09-02T16:04:10;5.95;;;1.40;;
6999;SDS011;3540;53.242;10.408;2022-09-02T16:06:38;5.32;;;1.60;;
6999;SDS011;3540;53.242;10.408;2022-09-02T16:09:05;3.63;;;1.83;;
6999;SDS011;3540;53.242;10.408;2022-09-02T16:11:31;1.55;;;1.30;;
6999;SDS011;3540;53.242;10.408;2022-09-02T16:14:00;2.22;;;1.20;;
6999;SDS011;3540;53.242;10.408;2022-09-02T16:16:25;3.50;;;1.30;;
6999;SDS011;3540;53.242;10.408;2022-09-02T16:18:51;3.35;;;1.50;;
6999;SDS011;3540;53.242;10.408;2022-09-02T16:21:18;3.00;;;1.50;;
6999;SDS011;3540;53.242;10.408;2022-09-02T16:23:45;1.40;;;1.30;;
6999;SDS011;3540;53.242;10.408;2022-09-02T16:26:12;4.50;;;1.52;;
6999;SDS011;3540;53.242;10.408;2022-09-02T16:28:56;3.85;;;2.55;;
6999;SDS011;3540;53.242;10.408;2022-09-02T16:31:24;2.30;;;1.40;;
6999;SDS011;3540;53.242;10.408;2022-09-02T16:33:52;1.75;;;1.27;;
6999;SDS011;3540;53.242;10.408;2022-09-02T16:36:20;5.35;;;1.80;;
6999;SDS011;3540;53.242;10.408;2022-09-02T16:38:46;2.90;;;1.30;;
6999;SDS011;3540;53.242;10.408;2022-09-02T16:43:55;2.60;;;1.50;;
6999;SDS011;3540;53.242;10.408;2022-09-02T16:46:23;3.65;;;1.55;;
6999;SDS011;3540;53.242;10.408;2022-09-02T16:48:49;2.65;;;1.35;;
6999;SDS011;3540;53.242;10.408;2022-09-02T16:51:15;3.42;;;1.35;;
6999;SDS011;3540;53.242;10.408;2022-09-02T16:53:41;6.30;;;1.30;;
6999;SDS011;3540;53.242;10.408;2022-09-02T16:56:11;2.50;;;1.30;;
6999;SDS011;3540;53.242;10.408;2022-09-02T16:58:41;4.50;;;1.50;;
6999;SDS011;3540;53.242;10.408;2022-09-02T17:01:09;3.97;;;1.38;;
6999;SDS011;3540;53.242;10.408;2022-09-02T17:03:36;2.42;;;1.17;;
6999;SDS011;3540;53.242;10.408;2022-09-02T17:06:02;2.25;;;1.38;;
6999;SDS011;3540;53.242;10.408;2022-09-02T17:08:28;1.48;;;1.23;;
6999;SDS011;3540;53.242;10.408;2022-09-02T17:11:16;1.45;;;1.30;;
6999;SDS011;3540;53.242;10.408;2022-09-02T17:13:51;1.90;;;1.27;;
6999;SDS011;3540;53.242;10.408;2022-09-02T17:16:17;2.22;;;1.17;;
6999;SDS011;3540;53.242;10.408;2022-09-02T17:18:44;3.13;;;1.20;;
6999;SDS011;3540;53.242;10.408;2022-09-02T17:23:53;3.17;;;1.43;;
6999;SDS011;3540;53.242;10.408;2022-09-02T17:26:20;2.80;;;1.30;;
6999;SDS011;3540;53.242;10.408;2022-09-02T17:28:47;3.30;;;1.30;;
6999;SDS011;3540;53.242;10.408;2022-09-02T17:33:46;1.30;;;1.20;;
6999;SDS011;3540;53.242;10.408;2022-09-02T17:36:12;1.30;;;1.20;;
6999;SDS011;3540;53.242;10.408;2022-09-02T17:38:38;2.00;;;1.33;;
6999;SDS011;3540;53.242;10.408;2022-09-02T17:41:05;1.40;;;1.30;;
6999;SDS011;3540;53.242;10.408;2022-09-02T17:43:50;2.00;;;1.30;;
6999;SDS011;3540;53.242;10.408;2022-09-02T17:46:15;1.30;;;1.20;;
6999;SDS011;3540;53.242;10.408;2022-09-02T17:48:41;1.30;;;1.20;;
6999;SDS011;3540;53.242;10.408;2022-09-02T17:51:07;1.57;;;1.30;;
6999;SDS011;3540;53.242;10.408;2022-09-02T17:53:32;1.63;;;1.40;;
6999;SDS011;3540;53.242;10.408;2022-09-02T17:56:03;1.67;;;1.30;;
6999;SDS011;3540;53.242;10.408;2022-09-02T18:10:35;6.03;;;1.40;;